createdAt,value
2023-01-28T00:00:18.698Z,9.321
2023-01-28T00:01:17.465Z,9.333
2023-01-28T00:02:17.380Z,9.355
2023-01-28T00:03:17.315Z,9.326
2023-01-28T00:04:17.669Z,9.321
2023-01-28T00:05:17.910Z,9.347
2023-01-28T00:06:16.948Z,9.310
2023-01-28T00:07:17.396Z,9.295
2023-01-28T00:08:17.465Z,9.328
2023-01-28T00:09:16.718Z,9.293
2023-01-28T00:10:17.048Z,9.263
2023-01-28T00:11:17.443Z,9.265
2023-01-28T00:12:17.014Z,9.310
2023-01-28T00:13:17.424Z,9.368
2023-01-28T00:14:17.399Z,9.336
2023-01-28T00:15:17.596Z,9.340
2023-01-28T00:16:17.468Z,9.315
2023-01-28T00:17:17.418Z,9.305
2023-01-28T00:18:17.725Z,9.343
2023-01-28T00:19:17.409Z,9.454
2023-01-28T00:20:17.549Z,9.449
2023-01-28T00:21:17.219Z,9.390
2023-01-28T00:22:17.067Z,9.321
2023-01-28T00:23:17.370Z,9.321
2023-01-28T00:24:17.413Z,9.270
2023-01-28T00:25:17.839Z,9.255
2023-01-28T00:26:17.310Z,9.239
2023-01-28T00:27:17.394Z,9.225
2023-01-28T00:28:17.430Z,9.225
2023-01-28T00:29:17.673Z,9.234
2023-01-28T00:30:17.697Z,9.312
2023-01-28T00:31:17.205Z,9.255
2023-01-28T00:32:17.758Z,9.229
2023-01-28T00:33:17.064Z,9.265
2023-01-28T00:34:16.837Z,9.244
2023-01-28T00:35:17.607Z,9.210
2023-01-28T00:36:17.427Z,9.220
2023-01-28T00:37:17.547Z,9.194
2023-01-28T00:38:17.021Z,9.178
2023-01-28T00:39:17.500Z,9.159
2023-01-28T00:40:17.504Z,9.149
2023-01-28T00:41:17.491Z,9.187
2023-01-28T00:42:17.442Z,9.178
2023-01-28T00:43:17.598Z,9.159
2023-01-28T00:44:17.407Z,9.149
2023-01-28T00:45:17.766Z,9.166
2023-01-28T00:46:17.371Z,9.166
2023-01-28T00:47:16.842Z,9.171
2023-01-28T00:48:17.009Z,9.120
2023-01-28T00:49:16.903Z,9.109
2023-01-28T00:50:17.167Z,9.131
2023-01-28T00:51:17.166Z,9.149
2023-01-28T00:52:17.077Z,9.126
2023-01-28T00:53:17.331Z,9.154
2023-01-28T00:54:17.328Z,9.177
2023-01-28T00:55:17.697Z,9.199
2023-01-28T00:56:15.904Z,9.204
2023-01-28T00:57:17.156Z,9.189
2023-01-28T00:58:16.866Z,9.194
2023-01-28T00:59:16.802Z,9.199
2023-01-28T01:00:32.060Z,9.182
2023-01-28T01:01:19.921Z,9.220
2023-01-28T01:02:17.616Z,9.182
2023-01-28T01:03:17.705Z,9.171
2023-01-28T01:04:17.773Z,9.208
2023-01-28T01:05:17.371Z,9.75
2023-01-28T01:06:17.558Z,9.564
2023-01-28T01:07:17.963Z,9.402
2023-01-28T01:08:17.022Z,9.25
2023-01-28T01:09:17.113Z,9.182
2023-01-28T01:10:17.288Z,9.131
2023-01-28T01:11:17.299Z,9.074
2023-01-28T01:12:17.398Z,9.064
2023-01-28T01:13:16.827Z,9.024
2023-01-28T01:14:17.701Z,9.050
2023-01-28T01:15:17.364Z,9.340
2023-01-28T01:16:17.134Z,9.180
2023-01-28T01:17:17.159Z,9.114
2023-01-28T01:18:17.533Z,9.055
2023-01-28T01:19:17.637Z,9.010
2023-01-28T01:20:17.818Z,9
2023-01-28T01:21:17.010Z,9.015
2023-01-28T01:22:17.045Z,9.034
2023-01-28T01:23:15.023Z,9.010
2023-01-28T01:24:17.282Z,8.975
2023-01-28T01:25:17.844Z,9.034
2023-01-28T01:26:17.080Z,9.045
2023-01-28T01:27:17.080Z,9.104
2023-01-28T01:28:17.089Z,9.024
2023-01-28T01:29:17.281Z,9.027
2023-01-28T01:30:17.635Z,9.064
2023-01-28T01:31:17.067Z,9.034
2023-01-28T01:32:17.147Z,9.018
2023-01-28T01:33:16.822Z,9.043
2023-01-28T01:34:17.002Z,9.029
2023-01-28T01:35:17.542Z,9.005
2023-01-28T01:36:17.259Z,9.020
2023-01-28T01:37:17.131Z,8.989
2023-01-28T01:38:16.972Z,8.975
2023-01-28T01:39:16.866Z,8.984
2023-01-28T01:40:17.914Z,8.979
2023-01-28T01:41:16.854Z,8.965
2023-01-28T01:42:17.364Z,8.925
2023-01-28T01:43:17.459Z,8.879
2023-01-28T01:44:17.207Z,8.890
2023-01-28T01:45:17.455Z,8.899
2023-01-28T01:46:16.857Z,8.909
2023-01-28T01:47:16.950Z,8.879
2023-01-28T01:48:17.561Z,8.838
2023-01-28T01:49:17.426Z,8.833
2023-01-28T01:50:17.671Z,8.826
2023-01-28T01:51:17.747Z,8.850
2023-01-28T01:52:17.674Z,8.800
2023-01-28T01:53:17.727Z,8.810
2023-01-28T01:54:17.401Z,8.770
2023-01-28T01:55:17.501Z,8.75
2023-01-28T01:56:17.376Z,8.739
2023-01-28T01:57:17.147Z,8.710
2023-01-28T01:58:17.138Z,8.694
2023-01-28T01:59:17.222Z,8.689
2023-01-28T02:00:17.990Z,8.687
2023-01-28T02:01:17.071Z,8.621
2023-01-28T02:02:17.265Z,8.604
2023-01-28T02:03:16.879Z,8.574
2023-01-28T02:04:17.099Z,8.569
2023-01-28T02:05:17.909Z,8.585
2023-01-28T02:06:17.170Z,8.614
2023-01-28T02:07:17.116Z,8.569
2023-01-28T02:08:16.847Z,8.520
2023-01-28T02:09:16.917Z,8.505
2023-01-28T02:10:17.024Z,8.465
2023-01-28T02:11:16.963Z,8.460
2023-01-28T02:12:16.935Z,8.449
2023-01-28T02:13:17.182Z,8.489
2023-01-28T02:14:29.453Z,8.430
2023-01-28T02:15:17.482Z,8.420
2023-01-28T02:16:16.542Z,8.475
2023-01-28T02:17:17.253Z,8.510
2023-01-28T02:19:16.505Z,8.539
2023-01-28T02:20:17.717Z,8.479
2023-01-28T02:21:17.666Z,8.479
2023-01-28T02:22:17.809Z,8.465
2023-01-28T02:23:16.951Z,8.475
2023-01-28T02:24:17.033Z,8.489
2023-01-28T02:25:17.698Z,8.680
2023-01-28T02:26:16.797Z,8.687
2023-01-28T02:27:17.915Z,8.590
2023-01-28T02:28:17.062Z,8.524
2023-01-28T02:29:17.513Z,8.5
2023-01-28T02:30:17.224Z,8.460
2023-01-28T02:31:17.473Z,8.484
2023-01-28T02:32:16.857Z,8.484
2023-01-28T02:33:17.098Z,8.479
2023-01-28T02:34:16.851Z,8.545
2023-01-28T02:35:17.351Z,8.470
2023-01-28T02:36:17.123Z,8.479
2023-01-28T02:37:17.106Z,8.435
2023-01-28T02:38:16.855Z,8.420
2023-01-28T02:39:17.092Z,8.355
2023-01-28T02:40:17.099Z,8.399
2023-01-28T02:41:17.364Z,8.425
2023-01-28T02:43:16.922Z,8.399
2023-01-28T02:44:16.637Z,8.390
2023-01-28T02:45:17.238Z,8.397
2023-01-28T02:46:17.293Z,8.404
2023-01-28T02:47:17.297Z,8.390
2023-01-28T02:48:17.060Z,8.379
2023-01-28T02:49:17.665Z,8.420
2023-01-28T02:50:17.308Z,8.449
2023-01-28T02:51:18.051Z,8.470
2023-01-28T02:52:17.468Z,8.475
2023-01-28T02:53:17.554Z,8.428
2023-01-28T02:54:16.831Z,8.435
2023-01-28T02:55:17.591Z,8.435
2023-01-28T02:56:18.190Z,8.456
2023-01-28T02:57:16.940Z,8.439
2023-01-28T02:58:16.832Z,8.399
2023-01-28T02:59:16.870Z,8.312
2023-01-28T03:00:17.903Z,8.317
2023-01-28T03:01:17.458Z,8.317
2023-01-28T03:02:17.343Z,8.300
2023-01-28T03:03:17.471Z,8.333
2023-01-28T03:04:17.086Z,8.305
2023-01-28T03:05:17.447Z,8.255
2023-01-28T03:06:17.247Z,8.239
2023-01-28T03:07:17.424Z,8.225
2023-01-28T03:08:17.749Z,8.244
2023-01-28T03:09:17.740Z,8.229
2023-01-28T03:10:17.721Z,8.255
2023-01-28T03:11:17.329Z,8.25
2023-01-28T03:12:17.321Z,8.25
2023-01-28T03:13:18.116Z,8.218
2023-01-28T03:14:17.507Z,8.255
2023-01-28T03:15:17.845Z,8.265
2023-01-28T03:16:17.569Z,8.300
2023-01-28T03:17:17.485Z,8.371
2023-01-28T03:18:17.678Z,8.289
2023-01-28T03:19:17.508Z,8.265
2023-01-28T03:20:17.855Z,8.295
2023-01-28T03:21:17.983Z,8.289
2023-01-28T03:22:17.676Z,8.234
2023-01-28T03:23:17.696Z,8.194
2023-01-28T03:24:17.553Z,8.199
2023-01-28T03:25:18.045Z,8.270
2023-01-28T03:26:17.635Z,8.312
2023-01-28T03:27:17.271Z,8.413
2023-01-28T03:28:18.090Z,8.265
2023-01-28T03:29:18.025Z,8.154
2023-01-28T03:30:18.386Z,8.154
2023-01-28T03:31:17.450Z,8.149
2023-01-28T03:32:17.845Z,8.100
2023-01-28T03:33:17.799Z,8.095
2023-01-28T03:34:17.730Z,8.131
2023-01-28T03:35:17.870Z,8.164
2023-01-28T03:36:18.237Z,8.210
2023-01-28T03:37:17.478Z,8.194
2023-01-28T03:38:17.445Z,8.390
2023-01-28T03:39:17.629Z,8.434
2023-01-28T03:40:18.000Z,8.321
2023-01-28T03:41:17.871Z,8.260
2023-01-28T03:42:18.204Z,8.192
2023-01-28T03:43:17.863Z,8.144
2023-01-28T03:44:17.789Z,8.144
2023-01-28T03:45:17.935Z,8.149
2023-01-28T03:46:17.089Z,8.126
2023-01-28T03:47:18.001Z,8.090
2023-01-28T03:48:17.671Z,8.121
2023-01-28T03:49:17.228Z,8.131
2023-01-28T03:50:17.842Z,8.109
2023-01-28T03:51:17.446Z,8.131
2023-01-28T03:52:17.777Z,8.185
2023-01-28T03:53:17.479Z,8.182
2023-01-28T03:54:17.229Z,8.149
2023-01-28T03:55:18.046Z,8.137
2023-01-28T03:56:17.381Z,8.120
2023-01-28T03:57:17.728Z,8.114
2023-01-28T03:58:17.207Z,8.147
2023-01-28T03:59:17.980Z,8.255
2023-01-28T04:00:18.525Z,8.166
2023-01-28T04:01:17.198Z,8.159
2023-01-28T04:02:17.828Z,8.175
2023-01-28T04:03:17.317Z,8.116
2023-01-28T04:04:17.243Z,8.100
2023-01-28T04:05:17.571Z,8.228
2023-01-28T04:06:17.463Z,8.220
2023-01-28T04:07:17.546Z,8.135
2023-01-28T04:08:18.019Z,8.133
2023-01-28T04:09:17.865Z,8.114
2023-01-28T04:10:18.401Z,8.101
2023-01-28T04:11:17.852Z,8.140
2023-01-28T04:12:17.825Z,8.119
2023-01-28T04:13:17.724Z,8.131
2023-01-28T04:14:18.409Z,8.109
2023-01-28T04:15:17.957Z,8.104
2023-01-28T04:16:17.994Z,8.050
2023-01-28T04:17:18.383Z,8.015
2023-01-28T04:18:17.974Z,7.989
2023-01-28T04:19:17.585Z,7.980
2023-01-28T04:20:17.852Z,7.969
2023-01-28T04:21:18.126Z,7.960
2023-01-28T04:22:18.109Z,7.974
2023-01-28T04:23:18.005Z,7.989
2023-01-28T04:24:18.206Z,8.039
2023-01-28T04:25:18.008Z,8.020
2023-01-28T04:26:17.492Z,8.024
2023-01-28T04:27:17.848Z,8.039
2023-01-28T04:28:17.527Z,8.045
2023-01-28T04:29:17.955Z,8.112
2023-01-28T04:30:17.635Z,8.137
2023-01-28T04:31:17.545Z,8.137
2023-01-28T04:32:17.413Z,8.166
2023-01-28T04:33:17.718Z,8.154
2023-01-28T04:34:16.915Z,8.095
2023-01-28T04:35:17.715Z,8.095
2023-01-28T04:36:17.011Z,8.100
2023-01-28T04:37:16.996Z,8.069
2023-01-28T04:38:17.317Z,8.050
2023-01-28T04:39:17.670Z,8.069
2023-01-28T04:40:17.303Z,8.104
2023-01-28T04:41:17.495Z,8.085
2023-01-28T04:42:17.818Z,8.060
2023-01-28T04:43:17.466Z,8.069
2023-01-28T04:44:17.595Z,8.189
2023-01-28T04:45:17.772Z,8.085
2023-01-28T04:46:17.312Z,8.039
2023-01-28T04:47:16.983Z,8.171
2023-01-28T04:48:17.299Z,8.095
2023-01-28T04:49:17.381Z,8.039
2023-01-28T04:50:18.060Z,7.989
2023-01-28T04:51:17.616Z,7.960
2023-01-28T04:52:17.917Z,7.945
2023-01-28T04:53:16.993Z,7.919
2023-01-28T04:54:17.331Z,7.914
2023-01-28T04:55:17.912Z,7.934
2023-01-28T04:56:17.145Z,7.974
2023-01-28T04:57:17.516Z,7.980
2023-01-28T04:58:17.624Z,8
2023-01-28T04:59:17.145Z,7.969
2023-01-28T05:00:18.362Z,7.909
2023-01-28T05:01:16.990Z,7.828
2023-01-28T05:02:17.373Z,7.795
2023-01-28T05:03:17.259Z,7.804
2023-01-28T05:04:18.004Z,7.780
2023-01-28T05:05:18.021Z,7.831
2023-01-28T05:06:17.809Z,7.909
2023-01-28T05:07:17.504Z,7.883
2023-01-28T05:08:17.851Z,7.828
2023-01-28T05:09:17.713Z,7.724
2023-01-28T05:10:17.086Z,7.710
2023-01-28T05:11:17.877Z,7.715
2023-01-28T05:12:17.250Z,7.730
2023-01-28T05:13:17.479Z,7.735
2023-01-28T05:14:17.585Z,7.730
2023-01-28T05:15:17.956Z,7.724
2023-01-28T05:16:18.255Z,7.719
2023-01-28T05:17:17.608Z,7.780
2023-01-28T05:18:17.221Z,7.873
2023-01-28T05:19:17.458Z,7.855
2023-01-28T05:20:17.811Z,7.784
2023-01-28T05:21:17.529Z,7.698
2023-01-28T05:22:17.314Z,7.703
2023-01-28T05:23:17.559Z,7.689
2023-01-28T05:24:17.888Z,7.699
2023-01-28T05:25:17.822Z,7.708
2023-01-28T05:26:17.285Z,7.684
2023-01-28T05:27:17.446Z,7.638
2023-01-28T05:28:17.308Z,7.625
2023-01-28T05:29:17.789Z,7.625
2023-01-28T05:30:22.807Z,7.651
2023-01-28T05:31:17.369Z,7.649
2023-01-28T05:32:17.813Z,7.625
2023-01-28T05:33:17.191Z,7.644
2023-01-28T05:34:17.409Z,7.625
2023-01-28T05:35:18.724Z,7.637
2023-01-28T05:36:17.672Z,7.676
2023-01-28T05:37:17.763Z,7.655
2023-01-28T05:38:17.362Z,7.739
2023-01-28T05:39:17.830Z,7.710
2023-01-28T05:40:17.934Z,7.688
2023-01-28T05:41:17.372Z,7.643
2023-01-28T05:42:17.895Z,7.659
2023-01-28T05:43:17.425Z,7.610
2023-01-28T05:44:17.320Z,7.649
2023-01-28T05:45:18.354Z,7.664
2023-01-28T05:46:17.999Z,7.678
2023-01-28T05:47:17.386Z,7.631
2023-01-28T05:48:18.141Z,7.632
2023-01-28T05:49:17.500Z,7.678
2023-01-28T05:50:18.198Z,7.649
2023-01-28T05:51:17.777Z,7.709
2023-01-28T05:52:17.562Z,7.755
2023-01-28T05:53:17.412Z,7.769
2023-01-28T05:54:17.685Z,7.730
2023-01-28T05:55:19.724Z,7.671
2023-01-28T05:56:17.162Z,7.620
2023-01-28T05:57:17.515Z,7.625
2023-01-28T05:58:17.385Z,7.614
2023-01-28T05:59:17.838Z,7.683
2023-01-28T06:00:32.325Z,7.689
2023-01-28T06:01:17.767Z,7.689
2023-01-28T06:02:17.618Z,7.704
2023-01-28T06:03:17.424Z,7.688
2023-01-28T06:04:17.933Z,7.683
2023-01-28T06:05:17.545Z,7.659
2023-01-28T06:06:17.372Z,7.715
2023-01-28T06:07:17.888Z,7.719
2023-01-28T06:08:17.357Z,7.653
2023-01-28T06:09:17.174Z,7.671
2023-01-28T06:10:17.755Z,7.655
2023-01-28T06:11:19.015Z,7.693
2023-01-28T06:12:17.308Z,7.724
2023-01-28T06:13:17.547Z,7.665
2023-01-28T06:14:17.465Z,7.631
2023-01-28T06:15:18.113Z,7.620
2023-01-28T06:16:17.297Z,7.644
2023-01-28T06:17:17.703Z,7.637
2023-01-28T06:18:17.221Z,7.643
2023-01-28T06:19:17.847Z,7.665
2023-01-28T06:20:17.966Z,7.689
2023-01-28T06:21:17.569Z,7.710
2023-01-28T06:22:17.222Z,7.760
2023-01-28T06:23:17.693Z,7.795
2023-01-28T06:24:17.296Z,7.789
2023-01-28T06:25:18.322Z,7.795
2023-01-28T06:26:17.790Z,7.780
2023-01-28T06:27:17.430Z,7.735
2023-01-28T06:28:17.514Z,7.710
2023-01-28T06:29:17.497Z,7.703
2023-01-28T06:30:17.882Z,7.764
2023-01-28T06:31:17.608Z,7.760
2023-01-28T06:32:18.079Z,7.735
2023-01-28T06:33:17.602Z,7.735
2023-01-28T06:34:17.557Z,7.710
2023-01-28T06:35:17.692Z,7.75
2023-01-28T06:36:17.212Z,7.755
2023-01-28T06:37:17.833Z,7.764
2023-01-28T06:38:17.283Z,7.715
2023-01-28T06:39:17.314Z,7.695
2023-01-28T06:40:17.905Z,7.655
2023-01-28T06:41:17.094Z,7.693
2023-01-28T06:42:17.642Z,7.706
2023-01-28T06:43:17.158Z,7.717
2023-01-28T06:44:17.518Z,7.700
2023-01-28T06:45:18.021Z,7.703
2023-01-28T06:46:17.202Z,7.704
2023-01-28T06:47:17.720Z,7.710
2023-01-28T06:48:17.269Z,7.738
2023-01-28T06:49:17.783Z,7.735
2023-01-28T06:50:17.842Z,7.725
2023-01-28T06:51:17.740Z,7.766
2023-01-28T06:52:17.508Z,7.719
2023-01-28T06:53:17.427Z,7.730
2023-01-28T06:54:17.502Z,7.695
2023-01-28T06:55:18.061Z,7.690
2023-01-28T06:56:18.020Z,7.659
2023-01-28T06:57:17.675Z,7.730
2023-01-28T06:58:16.865Z,7.719
2023-01-28T06:59:17.131Z,7.715
2023-01-28T07:00:18.761Z,7.744
2023-01-28T07:01:17.096Z,7.764
2023-01-28T07:02:17.746Z,7.769
2023-01-28T07:03:17.260Z,7.780
2023-01-28T07:04:17.746Z,7.764
2023-01-28T07:05:17.351Z,7.724
2023-01-28T07:06:18.272Z,7.780
2023-01-28T07:07:17.212Z,7.769
2023-01-28T07:08:17.904Z,7.764
2023-01-28T07:09:17.405Z,7.760
2023-01-28T07:10:18.295Z,7.775
2023-01-28T07:11:17.777Z,7.735
2023-01-28T07:12:17.847Z,7.744
2023-01-28T07:13:17.554Z,7.704
2023-01-28T07:15:18.168Z,7.730
2023-01-28T07:16:17.741Z,7.744
2023-01-28T07:17:17.617Z,7.719
2023-01-28T07:18:17.111Z,7.724
2023-01-28T07:19:17.840Z,7.693
2023-01-28T07:20:18.422Z,7.649
2023-01-28T07:21:17.577Z,7.631
2023-01-28T07:22:17.206Z,7.655
2023-01-28T07:23:17.796Z,7.724
2023-01-28T07:24:17.454Z,7.724
2023-01-28T07:25:17.421Z,7.715
2023-01-28T07:26:17.202Z,7.755
2023-01-28T07:27:17.957Z,7.75
2023-01-28T07:28:17.725Z,7.75
2023-01-28T07:29:17.497Z,7.710
2023-01-28T07:30:17.822Z,7.764
2023-01-28T07:31:17.370Z,7.75
2023-01-28T07:32:16.889Z,7.730
2023-01-28T07:33:17.521Z,7.715
2023-01-28T07:34:17.355Z,7.755
2023-01-28T07:35:17.857Z,7.729
2023-01-28T07:36:17.788Z,7.724
2023-01-28T07:37:17.383Z,7.755
2023-01-28T07:38:17.534Z,7.795
2023-01-28T07:39:17.728Z,7.769
2023-01-28T07:40:17.889Z,7.744
2023-01-28T07:41:17.634Z,7.739
2023-01-28T07:42:17.597Z,7.755
2023-01-28T07:43:17.651Z,7.724
2023-01-28T07:44:17.773Z,7.703
2023-01-28T07:45:17.821Z,7.710
2023-01-28T07:46:17.922Z,7.744
2023-01-28T07:47:18.031Z,7.769
2023-01-28T07:48:17.617Z,7.769
2023-01-28T07:49:17.502Z,7.769
2023-01-28T07:50:17.942Z,7.755
2023-01-28T07:51:17.603Z,7.775
2023-01-28T07:52:17.522Z,7.784
2023-01-28T07:53:17.256Z,7.795
2023-01-28T07:54:18.245Z,7.804
2023-01-28T07:55:18.000Z,7.815
2023-01-28T07:56:17.826Z,7.874
2023-01-28T07:57:17.417Z,7.883
2023-01-28T07:58:17.823Z,7.914
2023-01-28T07:59:18.088Z,7.879
2023-01-28T08:00:19.457Z,7.861
2023-01-28T08:01:17.810Z,7.821
2023-01-28T08:02:17.680Z,7.810
2023-01-28T08:03:18.281Z,7.826
2023-01-28T08:04:17.538Z,7.833
2023-01-28T08:05:18.239Z,7.885
2023-01-28T08:06:17.690Z,7.879
2023-01-28T08:07:18.216Z,7.890
2023-01-28T08:08:18.295Z,7.920
2023-01-28T08:09:16.998Z,7.900
2023-01-28T08:10:18.208Z,7.873
2023-01-28T08:11:17.808Z,7.905
2023-01-28T08:12:17.641Z,7.880
2023-01-28T08:13:17.428Z,7.940
2023-01-28T08:14:17.661Z,7.934
2023-01-28T08:15:17.475Z,7.945
2023-01-28T08:16:17.581Z,7.934
2023-01-28T08:17:17.622Z,7.934
2023-01-28T08:18:17.278Z,7.909
2023-01-28T08:19:18.139Z,7.945
2023-01-28T08:20:18.297Z,7.985
2023-01-28T08:21:17.655Z,7.940
2023-01-28T08:22:17.367Z,7.960
2023-01-28T08:23:17.525Z,7.974
2023-01-28T08:24:17.665Z,7.989
2023-01-28T08:25:17.350Z,7.949
2023-01-28T08:26:17.337Z,7.925
2023-01-28T08:27:17.327Z,7.934
2023-01-28T08:28:17.436Z,7.974
2023-01-28T08:29:16.917Z,7.954
2023-01-28T08:30:17.789Z,7.945
2023-01-28T08:31:17.934Z,7.934
2023-01-28T08:32:17.418Z,7.920
2023-01-28T08:33:17.194Z,7.945
2023-01-28T08:34:17.827Z,7.949
2023-01-28T08:35:17.655Z,7.920
2023-01-28T08:36:17.767Z,7.894
2023-01-28T08:37:17.304Z,7.888
2023-01-28T08:38:18.066Z,7.905
2023-01-28T08:39:17.469Z,7.969
2023-01-28T08:40:17.768Z,7.965
2023-01-28T08:41:17.437Z,7.914
2023-01-28T08:42:17.982Z,7.920
2023-01-28T08:43:17.756Z,7.909
2023-01-28T08:44:17.032Z,7.889
2023-01-28T08:45:17.840Z,7.889
2023-01-28T08:46:17.508Z,7.900
2023-01-28T08:47:17.444Z,7.920
2023-01-28T08:48:16.869Z,7.914
2023-01-28T08:49:17.743Z,7.925
2023-01-28T08:50:17.476Z,7.945
2023-01-28T08:52:17.586Z,7.965
2023-01-28T08:53:17.209Z,7.985
2023-01-28T08:54:17.196Z,7.974
2023-01-28T08:55:18.221Z,7.954
2023-01-28T08:56:18.019Z,7.969
2023-01-28T08:57:17.664Z,8
2023-01-28T08:58:17.255Z,8.064
2023-01-28T08:59:18.104Z,8.069
2023-01-28T09:00:19.035Z,8.039
2023-01-28T09:02:30.660Z,8.024
2023-01-28T09:03:17.638Z,7.974
2023-01-28T09:04:17.268Z,8.015
2023-01-28T09:05:18.196Z,8.015
2023-01-28T09:06:17.389Z,8.015
2023-01-28T09:07:18.342Z,8
2023-01-28T09:08:17.241Z,8.034
2023-01-28T09:09:18.169Z,8.024
2023-01-28T09:10:18.270Z,8.024
2023-01-28T09:11:17.441Z,8.005
2023-01-28T09:12:17.343Z,8.034
2023-01-28T09:13:17.368Z,8.055
2023-01-28T09:14:17.075Z,8.074
2023-01-28T09:15:17.973Z,8.085
2023-01-28T09:16:17.773Z,8.109
2023-01-28T09:18:17.244Z,8.142
2023-01-28T09:19:17.470Z,8.137
2023-01-28T09:20:17.558Z,8.156
2023-01-28T09:21:17.402Z,8.213
2023-01-28T09:22:17.221Z,8.192
2023-01-28T09:23:17.877Z,8.132
2023-01-28T09:24:17.284Z,8.078
2023-01-28T09:25:17.451Z,8.104
2023-01-28T09:26:17.321Z,8.170
2023-01-28T09:27:17.241Z,8.159
2023-01-28T09:28:17.585Z,8.192
2023-01-28T09:29:17.416Z,8.210
2023-01-28T09:30:18.725Z,8.182
2023-01-28T09:31:18.152Z,8.187
2023-01-28T09:32:17.783Z,8.163
2023-01-28T09:33:18.168Z,8.121
2023-01-28T09:34:18.113Z,8.104
2023-01-28T09:35:17.964Z,8.095
2023-01-28T09:36:18.097Z,8.105
2023-01-28T09:37:18.723Z,8.121
2023-01-28T09:38:18.811Z,8.131
2023-01-28T09:39:19.231Z,8.189
2023-01-28T09:40:19.266Z,8.189
2023-01-28T09:41:19.161Z,8.154
2023-01-28T09:42:17.987Z,8.192
2023-01-28T09:43:19.058Z,8.154
2023-01-28T09:44:18.207Z,8.182
2023-01-28T09:45:18.936Z,8.149
2023-01-28T09:46:18.620Z,8.142
2023-01-28T09:47:18.841Z,8.126
2023-01-28T09:48:18.448Z,8.137
2023-01-28T09:49:19.144Z,8.166
2023-01-28T09:50:19.080Z,8.154
2023-01-28T09:51:19.063Z,8.138
2023-01-28T09:52:18.572Z,8.137
2023-01-28T09:53:18.807Z,8.161
2023-01-28T09:54:19.522Z,8.171
2023-01-28T09:55:19.209Z,8.149
2023-01-28T09:56:18.229Z,8.137
2023-01-28T09:57:18.537Z,8.149
2023-01-28T09:58:19.036Z,8.142
2023-01-28T09:59:17.844Z,8.095
2023-01-28T10:00:19.666Z,8.039
2023-01-28T10:01:18.076Z,8.024
2023-01-28T10:02:18.174Z,7.980
2023-01-28T10:03:18.015Z,7.960
2023-01-28T10:04:18.143Z,8.010
2023-01-28T10:05:17.958Z,8.064
2023-01-28T10:06:18.090Z,8.039
2023-01-28T10:07:17.877Z,8.029
2023-01-28T10:08:18.122Z,8.024
2023-01-28T10:09:17.888Z,8.029
2023-01-28T10:10:18.835Z,8.060
2023-01-28T10:11:18.421Z,8.074
2023-01-28T10:12:17.617Z,8.064
2023-01-28T10:13:19.274Z,8.020
2023-01-28T10:14:18.117Z,8.060
2023-01-28T10:15:18.097Z,8.138
2023-01-28T10:16:17.615Z,8.100
2023-01-28T10:17:17.682Z,8.114
2023-01-28T10:18:18.493Z,8.079
2023-01-28T10:19:17.861Z,8.069
2023-01-28T10:20:17.859Z,8.039
2023-01-28T10:21:18.149Z,8.029
2023-01-28T10:22:17.605Z,8.079
2023-01-28T10:23:17.583Z,8.064
2023-01-28T10:24:17.942Z,8.039
2023-01-28T10:25:18.141Z,8.045
2023-01-28T10:26:17.144Z,8.055
2023-01-28T10:27:17.937Z,8.024
2023-01-28T10:28:17.595Z,8.029
2023-01-28T10:29:17.706Z,8.039
2023-01-28T10:30:17.933Z,8.126
2023-01-28T10:31:18.350Z,8.25
2023-01-28T10:32:17.346Z,8.234
2023-01-28T10:33:17.452Z,8.255
2023-01-28T10:34:20.044Z,8.289
2023-01-28T10:35:18.297Z,8.326
2023-01-28T10:36:17.754Z,8.347
2023-01-28T10:37:18.083Z,8.420
2023-01-28T10:38:18.057Z,8.420
2023-01-28T10:39:18.628Z,8.434
2023-01-28T10:40:18.754Z,8.453
2023-01-28T10:41:18.086Z,8.444
2023-01-28T10:42:18.311Z,8.538
2023-01-28T10:43:17.593Z,8.484
2023-01-28T10:44:17.574Z,8.439
2023-01-28T10:45:18.295Z,8.383
2023-01-28T10:46:17.797Z,8.333
2023-01-28T10:47:17.939Z,8.342
2023-01-28T10:48:18.059Z,8.336
2023-01-28T10:49:18.072Z,8.338
2023-01-28T10:50:18.700Z,8.315
2023-01-28T10:51:18.072Z,8.355
2023-01-28T10:52:18.016Z,8.366
2023-01-28T10:53:18.397Z,8.484
2023-01-28T10:54:18.098Z,8.534
2023-01-28T10:55:18.501Z,8.470
2023-01-28T10:56:17.662Z,8.465
2023-01-28T10:57:17.904Z,8.475
2023-01-28T10:58:18.042Z,8.475
2023-01-28T10:59:18.111Z,8.439
2023-01-28T11:00:19.435Z,8.399
2023-01-28T11:01:18.369Z,8.444
2023-01-28T11:02:17.955Z,8.555
2023-01-28T11:03:17.958Z,8.550
2023-01-28T11:04:18.126Z,8.539
2023-01-28T11:05:17.642Z,8.579
2023-01-28T11:06:17.624Z,8.590
2023-01-28T11:07:17.667Z,8.604
2023-01-28T11:08:17.577Z,8.649
2023-01-28T11:09:17.679Z,8.755
2023-01-28T11:10:17.796Z,8.894
2023-01-28T11:11:18.116Z,8.960
2023-01-28T11:12:18.497Z,8.960
2023-01-28T11:13:17.796Z,8.944
2023-01-28T11:14:17.863Z,9.100
2023-01-28T11:15:18.117Z,9.020
2023-01-28T11:16:18.234Z,8.970
2023-01-28T11:17:18.154Z,8.920
2023-01-28T11:18:17.676Z,8.984
2023-01-28T11:19:17.883Z,9.045
2023-01-28T11:20:17.894Z,9.104
2023-01-28T11:21:18.089Z,9.100
2023-01-28T11:22:17.454Z,9.050
2023-01-28T11:23:17.897Z,9.034
2023-01-28T11:24:18.298Z,9.064
2023-01-28T11:25:18.135Z,9.079
2023-01-28T11:26:17.960Z,9.196
2023-01-28T11:27:17.889Z,9.182
2023-01-28T11:28:17.683Z,9.178
2023-01-28T11:29:17.958Z,9.229
2023-01-28T11:30:18.266Z,9.355
2023-01-28T11:31:18.260Z,9.333
2023-01-28T11:32:18.136Z,9.305
2023-01-28T11:33:18.093Z,9.270
2023-01-28T11:34:18.051Z,9.239
2023-01-28T11:35:18.528Z,9.215
2023-01-28T11:36:17.643Z,9.199
2023-01-28T11:37:18.072Z,9.260
2023-01-28T11:38:17.493Z,9.307
2023-01-28T11:39:17.827Z,9.317
2023-01-28T11:40:20.614Z,9.274
2023-01-28T11:41:17.547Z,9.178
2023-01-28T11:42:17.576Z,9.079
2023-01-28T11:43:17.823Z,9.029
2023-01-28T11:44:17.930Z,9.010
2023-01-28T11:45:18.549Z,8.975
2023-01-28T11:46:18.020Z,9.138
2023-01-28T11:47:18.432Z,9.104
2023-01-28T11:48:18.004Z,9.045
2023-01-28T11:49:17.697Z,9.045
2023-01-28T11:50:18.510Z,8.975
2023-01-28T11:51:17.890Z,8.965
2023-01-28T11:52:18.462Z,8.944
2023-01-28T11:53:18.073Z,8.944
2023-01-28T11:54:18.082Z,8.979
2023-01-28T11:55:18.191Z,9.015
2023-01-28T11:56:18.047Z,9.116
2023-01-28T11:57:17.918Z,9.060
2023-01-28T11:58:17.984Z,8.965
2023-01-28T11:59:18.107Z,8.944
2023-01-28T12:00:18.748Z,8.920
2023-01-28T12:01:18.085Z,8.925
2023-01-28T12:02:17.885Z,8.984
2023-01-28T12:03:18.029Z,9.005
2023-01-28T12:04:17.724Z,8.975
2023-01-28T12:05:18.140Z,9.009
2023-01-28T12:06:17.964Z,9.010
2023-01-28T12:07:18.058Z,8.979
2023-01-28T12:08:17.625Z,9.024
2023-01-28T12:09:18.194Z,9.050
2023-01-28T12:10:18.148Z,9.045
2023-01-28T12:11:18.065Z,9.197
2023-01-28T12:12:18.190Z,9.045
2023-01-28T12:13:18.149Z,8.920
2023-01-28T12:14:19.088Z,8.859
2023-01-28T12:15:18.439Z,8.897
2023-01-28T12:16:18.823Z,8.904
2023-01-28T12:17:18.118Z,8.958
2023-01-28T12:18:17.744Z,8.979
2023-01-28T12:19:18.604Z,8.939
2023-01-28T12:20:18.623Z,8.975
2023-01-28T12:21:18.350Z,8.887
2023-01-28T12:22:17.875Z,8.800
2023-01-28T12:23:18.142Z,8.784
2023-01-28T12:24:17.730Z,8.765
2023-01-28T12:25:18.239Z,8.885
2023-01-28T12:26:17.418Z,8.954
2023-01-28T12:27:17.699Z,8.935
2023-01-28T12:28:18.448Z,8.960
2023-01-28T12:29:18.764Z,8.897
2023-01-28T12:30:18.789Z,8.970
2023-01-28T12:31:18.269Z,8.939
2023-01-28T12:32:18.683Z,8.779
2023-01-28T12:33:19.000Z,8.654
2023-01-28T12:34:18.039Z,8.682
2023-01-28T12:35:18.896Z,8.675
2023-01-28T12:36:18.269Z,8.682
2023-01-28T12:37:18.290Z,8.739
2023-01-28T12:38:18.331Z,8.774
2023-01-28T12:39:18.201Z,8.710
2023-01-28T12:40:18.388Z,8.654
2023-01-28T12:41:17.761Z,8.605
2023-01-28T12:42:17.666Z,8.564
2023-01-28T12:43:18.642Z,8.579
2023-01-28T12:44:18.237Z,8.564
2023-01-28T12:45:17.904Z,8.621
2023-01-28T12:46:18.724Z,8.677
2023-01-28T12:47:18.556Z,8.626
2023-01-28T12:48:18.797Z,8.579
2023-01-28T12:49:18.338Z,8.604
2023-01-28T12:50:18.605Z,8.626
2023-01-28T12:51:18.257Z,8.670
2023-01-28T12:52:18.325Z,8.600
2023-01-28T12:53:18.432Z,8.574
2023-01-28T12:54:18.303Z,8.604
2023-01-28T12:55:18.544Z,8.574
2023-01-28T12:56:18.152Z,8.524
2023-01-28T12:57:18.132Z,8.524
2023-01-28T12:58:18.073Z,8.529
2023-01-28T12:59:18.351Z,8.560